Terminal Aerodrome Forecast
Issued by NWS Midland/Odessa, TX

Home | Current Version | Previous Version | Text Only | Print | Product List | Glossary On
Versions: 1 2 3 4 5 6 7 8 9 10 11 12 13 14 15 16 17 18 19 20 21 22 23 24 25
475
FTUS44 KMAF 040213 AAB
TAFMAF
TAF AMD
KMAF 040213Z 0402/0424 02009KT P6SM FEW008 OVC011
      TEMPO 0402/0404 2SM RADZ BR OVC001
     FM040400 03009KT 3SM -DZ BR OVC003
     FM041700 03013KT P6SM OVC010=

USA.gov is the U.S. government's official web portal to all federal, state and local government web resources and services.